Hauptseite
METAR-TAF:

METAR-TAF

Flughäfen :

Bückeburg, Deutschland

Heeresflugplatz Bückeburg

Breite: 52-17N, Länge: 009-05E, Höhe: 70 m

Beobachtung

Neuester Wetterbericht von vor 1 Stunde und 26 Minuten, um 13:20 UTC
Wind 11 kt aus West
Temperatur 14°C
Luftfeuchtigkeit 77%
Luftdruck 1019 hPa
Sichtweite 10 km oder mehr
Leicht bewölkt in der Höhe von 1900 ft
Durchbrochene Bewölkung in der Höhe von 7000 ft

METAR: ETHB 201320Z 27011KT 9999 FEW019 BKN070 14/10 Q1019 BLU BLU

Zeit: 16:46 (14:46 UTC)

Prognose

Neuester Wetterbericht von vor 4 Stunden und 19 Minuten, um 10:27 UTC
Gültige Prognose vom 20 um 11 UTC bis 20 um 20 UTC
Wind 7 kt aus West/Südwest
Sichtweite 10 km oder mehr
Aufgelockert bewölkt in der Höhe von 2500 ft
Durchbrochene Bewölkung in der Höhe von 6000 ft

TAF: ETHB 201027Z 2011/2020 24007KT 9999 NSW SCT025 BKN060

Wetterbeobachtungen und Prognosen von mehr als 4000 Flughäfen (METAR und TAF Bericht).

Die verfügbaren Stationen werden durch gelbe und rote Markierungen auf der Karte dargestellt.

Führen Sie die Maus auf sie, um den Namen der Station zu sehen.

Darauf klicken, um die Beobachtung von Wetterbeobachtungen und Prognosen zu sehen.

Um die Karte zu ändern : klicken Sie auf den grünen Tasten mit einem schwarzen Kreuz Zum Vergrößern, auf den grünen Button mit einem Gedankenstrich zu verkleinern, oder auf die grünen Pfeile für benachbarte Karten.


METAR-TAF: